sensor_id;sensor_type;location;lat;lon;timestamp;pressure;altitude;pressure_sealevel;temperature;humidity
48563;BME280;34981;49.104;11.396;2023-04-12T00:02:03;95245.53;;;3.80;100.00
48563;BME280;34981;49.104;11.396;2023-04-12T00:04:30;95239.44;;;3.80;100.00
48563;BME280;34981;49.104;11.396;2023-04-12T00:07:00;95240.75;;;3.77;100.00
48563;BME280;34981;49.104;11.396;2023-04-12T00:09:28;95226.00;;;3.70;100.00
48563;BME280;34981;49.104;11.396;2023-04-12T00:11:56;95242.19;;;3.68;100.00
48563;BME280;34981;49.104;11.396;2023-04-12T00:14:24;95251.22;;;3.67;100.00
48563;BME280;34981;49.104;11.396;2023-04-12T00:16:51;95253.97;;;3.72;100.00
48563;BME280;34981;49.104;11.396;2023-04-12T00:19:18;95255.53;;;3.73;100.00
48563;BME280;34981;49.104;11.396;2023-04-12T00:21:45;95244.22;;;3.61;100.00
48563;BME280;34981;49.104;11.396;2023-04-12T00:24:12;95253.06;;;3.67;100.00
48563;BME280;34981;49.104;11.396;2023-04-12T00:26:39;95259.75;;;3.69;100.00
48563;BME280;34981;49.104;11.396;2023-04-12T00:29:06;95260.88;;;3.73;100.00
48563;BME280;34981;49.104;11.396;2023-04-12T00:31:34;95266.69;;;3.70;100.00
48563;BME280;34981;49.104;11.396;2023-04-12T00:34:01;95270.84;;;3.66;100.00
48563;BME280;34981;49.104;11.396;2023-04-12T00:36:29;95262.34;;;3.47;100.00
48563;BME280;34981;49.104;11.396;2023-04-12T00:38:56;95283.38;;;3.49;100.00
48563;BME280;34981;49.104;11.396;2023-04-12T00:41:24;95289.09;;;3.58;100.00
48563;BME280;34981;49.104;11.396;2023-04-12T00:43:52;95300.19;;;3.71;100.00
48563;BME280;34981;49.104;11.396;2023-04-12T00:46:19;95299.28;;;3.82;100.00
48563;BME280;34981;49.104;11.396;2023-04-12T00:48:46;95277.16;;;3.77;100.00
48563;BME280;34981;49.104;11.396;2023-04-12T00:51:14;95285.94;;;3.77;100.00
48563;BME280;34981;49.104;11.396;2023-04-12T00:53:44;95282.22;;;3.78;100.00
48563;BME280;34981;49.104;11.396;2023-04-12T00:56:12;95275.22;;;3.72;100.00
48563;BME280;34981;49.104;11.396;2023-04-12T00:58:39;95284.47;;;3.70;100.00
48563;BME280;34981;49.104;11.396;2023-04-12T01:01:06;95292.53;;;3.75;100.00
48563;BME280;34981;49.104;11.396;2023-04-12T01:03:33;95282.69;;;3.75;100.00
48563;BME280;34981;49.104;11.396;2023-04-12T01:14:06;95296.63;;;3.66;100.00
48563;BME280;34981;49.104;11.396;2023-04-12T01:16:38;95303.81;;;3.65;100.00
48563;BME280;34981;49.104;11.396;2023-04-12T01:19:12;95294.25;;;3.64;100.00
48563;BME280;34981;49.104;11.396;2023-04-12T01:21:53;95303.25;;;3.63;100.00
48563;BME280;34981;49.104;11.396;2023-04-12T01:24:45;95305.19;;;3.68;100.00
48563;BME280;34981;49.104;11.396;2023-04-12T01:27:22;95302.09;;;3.59;100.00
48563;BME280;34981;49.104;11.396;2023-04-12T01:29:55;95318.56;;;3.56;100.00
48563;BME280;34981;49.104;11.396;2023-04-12T01:32:25;95324.41;;;3.58;100.00
48563;BME280;34981;49.104;11.396;2023-04-12T01:34:53;95326.59;;;3.61;100.00
48563;BME280;34981;49.104;11.396;2023-04-12T01:37:21;95331.44;;;3.64;100.00
48563;BME280;34981;49.104;11.396;2023-04-12T01:39:48;95331.19;;;3.66;100.00
48563;BME280;34981;49.104;11.396;2023-04-12T01:42:20;95332.50;;;3.63;100.00
48563;BME280;34981;49.104;11.396;2023-04-12T01:44:47;95333.47;;;3.57;100.00
48563;BME280;34981;49.104;11.396;2023-04-12T01:47:14;95330.16;;;3.50;100.00
48563;BME280;34981;49.104;11.396;2023-04-12T01:52:29;95348.66;;;3.62;100.00
48563;BME280;34981;49.104;11.396;2023-04-12T01:54:57;95359.06;;;3.63;100.00
48563;BME280;34981;49.104;11.396;2023-04-12T01:57:31;95364.16;;;3.65;100.00
48563;BME280;34981;49.104;11.396;2023-04-12T01:59:58;95359.94;;;3.69;100.00
48563;BME280;34981;49.104;11.396;2023-04-12T02:02:28;95354.06;;;3.67;100.00
48563;BME280;34981;49.104;11.396;2023-04-12T02:04:58;95365.50;;;3.67;100.00
48563;BME280;34981;49.104;11.396;2023-04-12T02:07:26;95366.06;;;3.69;100.00
48563;BME280;34981;49.104;11.396;2023-04-12T02:09:53;95366.88;;;3.70;100.00
48563;BME280;34981;49.104;11.396;2023-04-12T02:12:21;95366.06;;;3.69;100.00
48563;BME280;34981;49.104;11.396;2023-04-12T02:14:48;95363.88;;;3.66;100.00
48563;BME280;34981;49.104;11.396;2023-04-12T02:17:18;95371.19;;;3.59;100.00
48563;BME280;34981;49.104;11.396;2023-04-12T02:19:45;95371.47;;;3.58;100.00
48563;BME280;34981;49.104;11.396;2023-04-12T02:22:14;95394.31;;;3.59;100.00
48563;BME280;34981;49.104;11.396;2023-04-12T02:24:42;95393.13;;;3.66;100.00
48563;BME280;34981;49.104;11.396;2023-04-12T02:27:10;95377.63;;;3.46;100.00
48563;BME280;34981;49.104;11.396;2023-04-12T02:29:37;95378.66;;;3.29;100.00
48563;BME280;34981;49.104;11.396;2023-04-12T02:32:05;95404.06;;;3.25;100.00
48563;BME280;34981;49.104;11.396;2023-04-12T02:34:32;95419.16;;;3.36;100.00
48563;BME280;34981;49.104;11.396;2023-04-12T02:37:13;95428.84;;;3.42;100.00
48563;BME280;34981;49.104;11.396;2023-04-12T02:39:43;95451.16;;;3.29;100.00
48563;BME280;34981;49.104;11.396;2023-04-12T02:42:11;95499.19;;;3.39;100.00
48563;BME280;34981;49.104;11.396;2023-04-12T02:44:38;95526.09;;;3.43;100.00
48563;BME280;34981;49.104;11.396;2023-04-12T02:47:10;95546.06;;;3.45;100.00
48563;BME280;34981;49.104;11.396;2023-04-12T02:49:39;95583.13;;;3.52;100.00
48563;BME280;34981;49.104;11.396;2023-04-12T02:52:07;95598.63;;;3.55;100.00
48563;BME280;34981;49.104;11.396;2023-04-12T02:57:36;95646.34;;;3.62;100.00
48563;BME280;34981;49.104;11.396;2023-04-12T03:00:05;95672.09;;;3.61;100.00
48563;BME280;34981;49.104;11.396;2023-04-12T03:02:41;95697.06;;;3.60;100.00
48563;BME280;34981;49.104;11.396;2023-04-12T03:05:14;95730.13;;;3.64;100.00
48563;BME280;34981;49.104;11.396;2023-04-12T03:07:43;95760.19;;;3.65;100.00
48563;BME280;34981;49.104;11.396;2023-04-12T03:10:11;95790.22;;;3.65;100.00
48563;BME280;34981;49.104;11.396;2023-04-12T03:12:54;95829.03;;;3.66;100.00
48563;BME280;34981;49.104;11.396;2023-04-12T03:15:21;95847.09;;;3.64;100.00
48563;BME280;34981;49.104;11.396;2023-04-12T03:17:51;95876.31;;;3.64;100.00
48563;BME280;34981;49.104;11.396;2023-04-12T03:20:21;95909.25;;;3.63;100.00
48563;BME280;34981;49.104;11.396;2023-04-12T03:23:00;95933.16;;;3.63;100.00
48563;BME280;34981;49.104;11.396;2023-04-12T03:25:29;95963.00;;;3.65;100.00
48563;BME280;34981;49.104;11.396;2023-04-12T03:28:16;95987.66;;;3.72;100.00
48563;BME280;34981;49.104;11.396;2023-04-12T03:30:48;96006.47;;;3.71;100.00
48563;BME280;34981;49.104;11.396;2023-04-12T03:33:19;96033.88;;;3.71;100.00
48563;BME280;34981;49.104;11.396;2023-04-12T03:35:47;96047.72;;;3.73;100.00
48563;BME280;34981;49.104;11.396;2023-04-12T03:38:15;96069.81;;;3.74;100.00
48563;BME280;34981;49.104;11.396;2023-04-12T03:40:42;96076.31;;;3.78;100.00
48563;BME280;34981;49.104;11.396;2023-04-12T03:43:09;96093.44;;;3.82;100.00
48563;BME280;34981;49.104;11.396;2023-04-12T03:45:37;96091.47;;;3.77;100.00
48563;BME280;34981;49.104;11.396;2023-04-12T03:48:05;96110.50;;;3.74;100.00
48563;BME280;34981;49.104;11.396;2023-04-12T03:50:40;96113.16;;;3.74;100.00
48563;BME280;34981;49.104;11.396;2023-04-12T03:53:17;96148.31;;;3.76;100.00
48563;BME280;34981;49.104;11.396;2023-04-12T03:55:45;96168.34;;;3.79;100.00
48563;BME280;34981;49.104;11.396;2023-04-12T03:58:13;96190.78;;;3.83;100.00
48563;BME280;34981;49.104;11.396;2023-04-12T04:00:44;96206.97;;;3.81;100.00
48563;BME280;34981;49.104;11.396;2023-04-12T04:03:13;96234.16;;;3.83;100.00
48563;BME280;34981;49.104;11.396;2023-04-12T04:05:46;96256.03;;;3.85;100.00
48563;BME280;34981;49.104;11.396;2023-04-12T04:08:15;96289.56;;;3.86;100.00
48563;BME280;34981;49.104;11.396;2023-04-12T04:10:49;96301.25;;;3.85;100.00
48563;BME280;34981;49.104;11.396;2023-04-12T04:13:17;96317.41;;;3.84;100.00
48563;BME280;34981;49.104;11.396;2023-04-12T04:15:44;96346.44;;;3.85;100.00
48563;BME280;34981;49.104;11.396;2023-04-12T04:18:12;96375.25;;;3.88;100.00
48563;BME280;34981;49.104;11.396;2023-04-12T04:20:39;96393.88;;;3.88;100.00
48563;BME280;34981;49.104;11.396;2023-04-12T04:23:07;96425.56;;;3.90;100.00
48563;BME280;34981;49.104;11.396;2023-04-12T04:25:38;96448.47;;;3.91;100.00
48563;BME280;34981;49.104;11.396;2023-04-12T04:28:07;96476.06;;;3.97;100.00
48563;BME280;34981;49.104;11.396;2023-04-12T04:30:35;96498.34;;;3.96;100.00
48563;BME280;34981;49.104;11.396;2023-04-12T04:33:07;96534.78;;;3.95;100.00
48563;BME280;34981;49.104;11.396;2023-04-12T04:35:37;96566.50;;;3.97;100.00
48563;BME280;34981;49.104;11.396;2023-04-12T04:38:28;96585.50;;;4.00;100.00
48563;BME280;34981;49.104;11.396;2023-04-12T04:41:06;96613.75;;;4.01;100.00
48563;BME280;34981;49.104;11.396;2023-04-12T04:43:55;96640.34;;;4.01;100.00
48563;BME280;34981;49.104;11.396;2023-04-12T04:46:26;96671.44;;;4.07;100.00
48563;BME280;34981;49.104;11.396;2023-04-12T04:48:56;96698.03;;;4.07;100.00
48563;BME280;34981;49.104;11.396;2023-04-12T04:51:24;96716.88;;;4.06;100.00
48563;BME280;34981;49.104;11.396;2023-04-12T04:53:53;96737.13;;;4.07;100.00
48563;BME280;34981;49.104;11.396;2023-04-12T04:56:21;96761.28;;;4.05;100.00
48563;BME280;34981;49.104;11.396;2023-04-12T04:58:50;96789.31;;;4.01;100.00
48563;BME280;34981;49.104;11.396;2023-04-12T05:01:21;96827.97;;;4.04;100.00
48563;BME280;34981;49.104;11.396;2023-04-12T05:03:52;96854.38;;;4.05;100.00
48563;BME280;34981;49.104;11.396;2023-04-12T05:06:22;96890.63;;;4.06;100.00
48563;BME280;34981;49.104;11.396;2023-04-12T05:08:50;96922.34;;;4.08;100.00
48563;BME280;34981;49.104;11.396;2023-04-12T05:11:18;96953.44;;;4.07;100.00
48563;BME280;34981;49.104;11.396;2023-04-12T05:13:46;96991.53;;;4.08;100.00
48563;BME280;34981;49.104;11.396;2023-04-12T05:16:13;97031.00;;;4.11;100.00
48563;BME280;34981;49.104;11.396;2023-04-12T05:18:41;97071.16;;;4.16;100.00
48563;BME280;34981;49.104;11.396;2023-04-12T05:21:08;97113.09;;;4.14;100.00
48563;BME280;34981;49.104;11.396;2023-04-12T05:23:36;97147.91;;;4.19;100.00
48563;BME280;34981;49.104;11.396;2023-04-12T05:26:04;97179.03;;;4.18;100.00
48563;BME280;34981;49.104;11.396;2023-04-12T05:28:31;97211.59;;;4.20;100.00
48563;BME280;34981;49.104;11.396;2023-04-12T05:30:58;97258.28;;;4.23;100.00
48563;BME280;34981;49.104;11.396;2023-04-12T05:33:33;97289.81;;;4.26;100.00
48563;BME280;34981;49.104;11.396;2023-04-12T05:36:01;97322.38;;;4.28;100.00
48563;BME280;34981;49.104;11.396;2023-04-12T05:38:30;97352.09;;;4.31;100.00
48563;BME280;34981;49.104;11.396;2023-04-12T05:41:02;97381.19;;;4.33;100.00
48563;BME280;34981;49.104;11.396;2023-04-12T05:43:32;97402.91;;;4.37;100.00
48563;BME280;34981;49.104;11.396;2023-04-12T05:45:59;97426.88;;;4.37;100.00
48563;BME280;34981;49.104;11.396;2023-04-12T05:48:27;97436.72;;;4.36;100.00
48563;BME280;34981;49.104;11.396;2023-04-12T05:50:56;97462.31;;;4.37;100.00
48563;BME280;34981;49.104;11.396;2023-04-12T05:53:23;97496.16;;;4.43;100.00
48563;BME280;34981;49.104;11.396;2023-04-12T05:55:50;97528.16;;;4.50;100.00
48563;BME280;34981;49.104;11.396;2023-04-12T05:58:18;97547.81;;;4.49;100.00
48563;BME280;34981;49.104;11.396;2023-04-12T06:00:48;97574.88;;;4.52;100.00
48563;BME280;34981;49.104;11.396;2023-04-12T06:03:15;97598.44;;;4.55;100.00
48563;BME280;34981;49.104;11.396;2023-04-12T06:05:43;97624.91;;;4.57;100.00
48563;BME280;34981;49.104;11.396;2023-04-12T06:08:10;97639.69;;;4.59;100.00
48563;BME280;34981;49.104;11.396;2023-04-12T06:10:40;97639.94;;;4.64;100.00
48563;BME280;34981;49.104;11.396;2023-04-12T06:13:08;97649.50;;;4.59;100.00
48563;BME280;34981;49.104;11.396;2023-04-12T06:15:40;97664.03;;;4.56;100.00
48563;BME280;34981;49.104;11.396;2023-04-12T06:18:07;97676.91;;;4.53;100.00
48563;BME280;34981;49.104;11.396;2023-04-12T06:20:37;97684.31;;;4.57;100.00
48563;BME280;34981;49.104;11.396;2023-04-12T06:23:04;97704.22;;;4.61;100.00
48563;BME280;34981;49.104;11.396;2023-04-12T06:25:33;97731.50;;;4.63;100.00
48563;BME280;34981;49.104;11.396;2023-04-12T06:28:00;97742.97;;;4.64;100.00
48563;BME280;34981;49.104;11.396;2023-04-12T06:30:27;97750.41;;;4.68;100.00
48563;BME280;34981;49.104;11.396;2023-04-12T06:32:55;97746.28;;;4.66;100.00
48563;BME280;34981;49.104;11.396;2023-04-12T06:35:23;97766.38;;;4.68;100.00
48563;BME280;34981;49.104;11.396;2023-04-12T06:37:50;97768.03;;;4.69;100.00
48563;BME280;34981;49.104;11.396;2023-04-12T06:40:17;97781.63;;;4.75;100.00
48563;BME280;34981;49.104;11.396;2023-04-12T06:42:44;97797.97;;;4.72;100.00
48563;BME280;34981;49.104;11.396;2023-04-12T06:45:12;97795.13;;;4.73;100.00
48563;BME280;34981;49.104;11.396;2023-04-12T06:47:39;97805.63;;;4.75;100.00
48563;BME280;34981;49.104;11.396;2023-04-12T06:50:06;97807.88;;;4.78;100.00
48563;BME280;34981;49.104;11.396;2023-04-12T06:52:33;97812.84;;;4.81;100.00
48563;BME280;34981;49.104;11.396;2023-04-12T06:55:00;97819.56;;;4.77;100.00
48563;BME280;34981;49.104;11.396;2023-04-12T06:57:28;97822.22;;;4.77;100.00
48563;BME280;34981;49.104;11.396;2023-04-12T06:59:55;97843.41;;;4.85;100.00
48563;BME280;34981;49.104;11.396;2023-04-12T07:02:22;97846.47;;;4.82;100.00
48563;BME280;34981;49.104;11.396;2023-04-12T07:04:52;97856.09;;;4.83;100.00
48563;BME280;34981;49.104;11.396;2023-04-12T07:07:20;97865.50;;;4.79;100.00
48563;BME280;34981;49.104;11.396;2023-04-12T07:09:47;97868.22;;;4.85;100.00
48563;BME280;34981;49.104;11.396;2023-04-12T07:12:14;97882.38;;;4.86;100.00
48563;BME280;34981;49.104;11.396;2023-04-12T07:14:42;97878.44;;;4.82;100.00
48563;BME280;34981;49.104;11.396;2023-04-12T07:17:10;97899.84;;;4.88;100.00
48563;BME280;34981;49.104;11.396;2023-04-12T07:19:37;97904.97;;;4.90;100.00
48563;BME280;34981;49.104;11.396;2023-04-12T07:22:05;97915.84;;;4.88;100.00
48563;BME280;34981;49.104;11.396;2023-04-12T07:24:32;97929.88;;;4.97;100.00
48563;BME280;34981;49.104;11.396;2023-04-12T07:26:59;97947.50;;;4.98;100.00
48563;BME280;34981;49.104;11.396;2023-04-12T07:29:27;97951.56;;;4.94;100.00
48563;BME280;34981;49.104;11.396;2023-04-12T07:31:54;97989.78;;;5.01;100.00
48563;BME280;34981;49.104;11.396;2023-04-12T07:34:21;97992.09;;;5.04;100.00
48563;BME280;34981;49.104;11.396;2023-04-12T07:36:50;98009.72;;;5.05;100.00
48563;BME280;34981;49.104;11.396;2023-04-12T07:39:17;98022.97;;;5.13;100.00
48563;BME280;34981;49.104;11.396;2023-04-12T07:41:44;98034.28;;;5.15;100.00
48563;BME280;34981;49.104;11.396;2023-04-12T07:44:12;98048.25;;;5.17;100.00
48563;BME280;34981;49.104;11.396;2023-04-12T07:46:39;98054.69;;;5.08;100.00
48563;BME280;34981;49.104;11.396;2023-04-12T07:49:07;98083.94;;;5.16;100.00
48563;BME280;34981;49.104;11.396;2023-04-12T07:51:36;98102.88;;;5.21;100.00
48563;BME280;34981;49.104;11.396;2023-04-12T07:54:03;98120.78;;;5.27;100.00
48563;BME280;34981;49.104;11.396;2023-04-12T07:56:32;98144.88;;;5.34;100.00
48563;BME280;34981;49.104;11.396;2023-04-12T07:58:59;98157.22;;;5.35;100.00
48563;BME280;34981;49.104;11.396;2023-04-12T08:01:27;98165.78;;;5.30;100.00
48563;BME280;34981;49.104;11.396;2023-04-12T08:03:54;98172.03;;;5.37;100.00
48563;BME280;34981;49.104;11.396;2023-04-12T08:06:22;98185.63;;;5.42;100.00
48563;BME280;34981;49.104;11.396;2023-04-12T08:08:49;98212.78;;;5.46;100.00
48563;BME280;34981;49.104;11.396;2023-04-12T08:11:16;98224.38;;;5.53;100.00
48563;BME280;34981;49.104;11.396;2023-04-12T08:13:43;98239.19;;;5.56;100.00
48563;BME280;34981;49.104;11.396;2023-04-12T08:16:10;98251.00;;;5.61;100.00
48563;BME280;34981;49.104;11.396;2023-04-12T08:18:39;98255.19;;;5.56;100.00
48563;BME280;34981;49.104;11.396;2023-04-12T08:21:06;98274.19;;;5.61;100.00
48563;BME280;34981;49.104;11.396;2023-04-12T08:23:33;98299.41;;;5.73;100.00
48563;BME280;34981;49.104;11.396;2023-04-12T08:26:00;98294.41;;;5.70;100.00
48563;BME280;34981;49.104;11.396;2023-04-12T08:28:30;98309.34;;;5.79;100.00
48563;BME280;34981;49.104;11.396;2023-04-12T08:30:58;98316.25;;;5.73;100.00
48563;BME280;34981;49.104;11.396;2023-04-12T08:33:25;98333.66;;;5.84;100.00
48563;BME280;34981;49.104;11.396;2023-04-12T08:35:53;98332.00;;;5.83;100.00
48563;BME280;34981;49.104;11.396;2023-04-12T08:38:21;98352.50;;;5.91;100.00
48563;BME280;34981;49.104;11.396;2023-04-12T08:41:06;98353.22;;;5.99;100.00
48563;BME280;34981;49.104;11.396;2023-04-12T08:43:33;98353.13;;;5.93;100.00
48563;BME280;34981;49.104;11.396;2023-04-12T08:46:00;98353.59;;;5.96;100.00
48563;BME280;34981;49.104;11.396;2023-04-12T08:48:28;98359.75;;;5.97;100.00
48563;BME280;34981;49.104;11.396;2023-04-12T08:50:55;98356.91;;;5.98;100.00
48563;BME280;34981;49.104;11.396;2023-04-12T08:53:23;98357.19;;;6.03;100.00
48563;BME280;34981;49.104;11.396;2023-04-12T08:55:50;98383.09;;;6.17;100.00
48563;BME280;34981;49.104;11.396;2023-04-12T08:58:18;98378.09;;;6.14;100.00
48563;BME280;34981;49.104;11.396;2023-04-12T09:00:46;98375.44;;;6.14;100.00
48563;BME280;34981;49.104;11.396;2023-04-12T09:03:13;98384.75;;;6.18;100.00
48563;BME280;34981;49.104;11.396;2023-04-12T09:05:41;98412.94;;;6.36;100.00
48563;BME280;34981;49.104;11.396;2023-04-12T09:08:08;98408.63;;;6.35;100.00
48563;BME280;34981;49.104;11.396;2023-04-12T09:10:36;98401.22;;;6.22;100.00
48563;BME280;34981;49.104;11.396;2023-04-12T09:13:04;98413.22;;;6.26;100.00
48563;BME280;34981;49.104;11.396;2023-04-12T09:15:32;98426.75;;;6.24;100.00
48563;BME280;34981;49.104;11.396;2023-04-12T09:18:03;98438.72;;;6.29;100.00
48563;BME280;34981;49.104;11.396;2023-04-12T09:20:31;98434.22;;;6.29;100.00
48563;BME280;34981;49.104;11.396;2023-04-12T09:22:58;98464.84;;;6.56;100.00
48563;BME280;34981;49.104;11.396;2023-04-12T09:25:35;98469.19;;;6.57;100.00
48563;BME280;34981;49.104;11.396;2023-04-12T09:28:03;98450.19;;;6.52;100.00
48563;BME280;34981;49.104;11.396;2023-04-12T09:30:33;98446.97;;;6.42;100.00
48563;BME280;34981;49.104;11.396;2023-04-12T09:33:10;98445.13;;;6.42;100.00
48563;BME280;34981;49.104;11.396;2023-04-12T09:35:37;98434.03;;;6.31;100.00
48563;BME280;34981;49.104;11.396;2023-04-12T09:38:08;98467.88;;;6.53;100.00
48563;BME280;34981;49.104;11.396;2023-04-12T09:40:36;98457.19;;;6.53;100.00
48563;BME280;34981;49.104;11.396;2023-04-12T09:43:03;98470.66;;;6.59;100.00
48563;BME280;34981;49.104;11.396;2023-04-12T09:45:32;98477.47;;;6.62;100.00
48563;BME280;34981;49.104;11.396;2023-04-12T09:48:00;98461.53;;;6.54;100.00
48563;BME280;34981;49.104;11.396;2023-04-12T09:50:27;98476.16;;;6.58;100.00
48563;BME280;34981;49.104;11.396;2023-04-12T09:52:55;98521.75;;;6.79;100.00
48563;BME280;34981;49.104;11.396;2023-04-12T09:55:28;98516.94;;;6.75;100.00
48563;BME280;34981;49.104;11.396;2023-04-12T09:57:55;98509.09;;;6.73;100.00
48563;BME280;34981;49.104;11.396;2023-04-12T10:00:23;98500.53;;;6.63;100.00
48563;BME280;34981;49.104;11.396;2023-04-12T10:02:53;98531.13;;;6.75;100.00
48563;BME280;34981;49.104;11.396;2023-04-12T10:05:21;98533.44;;;6.63;100.00
48563;BME280;34981;49.104;11.396;2023-04-12T10:07:52;98526.31;;;6.56;100.00
48563;BME280;34981;49.104;11.396;2023-04-12T10:10:21;98524.09;;;6.59;100.00
48563;BME280;34981;49.104;11.396;2023-04-12T10:12:48;98538.78;;;6.63;100.00
48563;BME280;34981;49.104;11.396;2023-04-12T10:15:16;98517.06;;;6.44;100.00
48563;BME280;34981;49.104;11.396;2023-04-12T10:17:46;98528.34;;;6.54;100.00
48563;BME280;34981;49.104;11.396;2023-04-12T10:20:14;98539.88;;;6.69;100.00
48563;BME280;34981;49.104;11.396;2023-04-12T10:22:43;98557.59;;;6.70;100.00
48563;BME280;34981;49.104;11.396;2023-04-12T10:25:15;98574.00;;;6.82;100.00
48563;BME280;34981;49.104;11.396;2023-04-12T10:27:43;98584.06;;;6.94;100.00
48563;BME280;34981;49.104;11.396;2023-04-12T10:30:27;98589.81;;;6.91;100.00
48563;BME280;34981;49.104;11.396;2023-04-12T10:35:28;98594.41;;;6.97;100.00
48563;BME280;34981;49.104;11.396;2023-04-12T10:38:02;98611.75;;;7.01;100.00
48563;BME280;34981;49.104;11.396;2023-04-12T10:40:31;98634.22;;;7.15;100.00
48563;BME280;34981;49.104;11.396;2023-04-12T10:45:44;98660.31;;;7.28;100.00
48563;BME280;34981;49.104;11.396;2023-04-12T10:51:31;98673.78;;;7.20;100.00
48563;BME280;34981;49.104;11.396;2023-04-12T10:54:29;98657.97;;;7.10;100.00
48563;BME280;34981;49.104;11.396;2023-04-12T10:56:41;98646.63;;;6.93;100.00
48563;BME280;34981;49.104;11.396;2023-04-12T10:59:13;98680.66;;;6.99;100.00
48563;BME280;34981;49.104;11.396;2023-04-12T11:04:29;98686.94;;;7.07;100.00
48563;BME280;34981;49.104;11.396;2023-04-12T11:07:19;98682.59;;;7.06;100.00
48563;BME280;34981;49.104;11.396;2023-04-12T11:10:03;98677.59;;;7.02;100.00
48563;BME280;34981;49.104;11.396;2023-04-12T11:12:38;98714.91;;;7.19;100.00
48563;BME280;34981;49.104;11.396;2023-04-12T11:15:05;98723.31;;;7.16;100.00
48563;BME280;34981;49.104;11.396;2023-04-12T11:17:53;98754.63;;;7.30;100.00
48563;BME280;34981;49.104;11.396;2023-04-12T11:20:20;98790.09;;;7.24;100.00
48563;BME280;34981;49.104;11.396;2023-04-12T11:22:48;98818.53;;;7.25;100.00
48563;BME280;34981;49.104;11.396;2023-04-12T11:25:17;98831.56;;;7.28;100.00
48563;BME280;34981;49.104;11.396;2023-04-12T11:27:48;98834.13;;;7.21;100.00
48563;BME280;34981;49.104;11.396;2023-04-12T11:30:16;98848.78;;;7.25;100.00
48563;BME280;34981;49.104;11.396;2023-04-12T11:32:43;98855.03;;;7.18;100.00
48563;BME280;34981;49.104;11.396;2023-04-12T11:35:13;98880.06;;;7.25;100.00
48563;BME280;34981;49.104;11.396;2023-04-12T11:37:40;98889.47;;;7.21;100.00
48563;BME280;34981;49.104;11.396;2023-04-12T11:40:07;98902.34;;;7.17;100.00
48563;BME280;34981;49.104;11.396;2023-04-12T11:42:35;98920.53;;;7.30;100.00
48563;BME280;34981;49.104;11.396;2023-04-12T11:45:05;98911.00;;;7.27;100.00
48563;BME280;34981;49.104;11.396;2023-04-12T11:47:42;98914.94;;;7.39;100.00
48563;BME280;34981;49.104;11.396;2023-04-12T11:50:10;98964.91;;;7.47;100.00
48563;BME280;34981;49.104;11.396;2023-04-12T11:52:37;98989.66;;;7.49;100.00
48563;BME280;34981;49.104;11.396;2023-04-12T11:55:07;99267.38;;;7.47;100.00
48563;BME280;34981;49.104;11.396;2023-04-12T11:57:37;99276.75;;;7.51;100.00
48563;BME280;34981;49.104;11.396;2023-04-12T12:00:04;99274.41;;;7.40;100.00
48563;BME280;34981;49.104;11.396;2023-04-12T12:02:38;99282.44;;;7.48;100.00
48563;BME280;34981;49.104;11.396;2023-04-12T12:05:22;99286.25;;;7.54;100.00
48563;BME280;34981;49.104;11.396;2023-04-12T12:07:50;99303.53;;;7.51;100.00
48563;BME280;34981;49.104;11.396;2023-04-12T12:10:18;99332.13;;;7.67;100.00
48563;BME280;34981;49.104;11.396;2023-04-12T12:13:09;99327.56;;;7.67;100.00
48563;BME280;34981;49.104;11.396;2023-04-12T12:15:37;99349.34;;;7.64;100.00
48563;BME280;34981;49.104;11.396;2023-04-12T12:18:08;99384.34;;;7.79;100.00
48563;BME280;34981;49.104;11.396;2023-04-12T12:20:39;99407.25;;;7.98;100.00
48563;BME280;34981;49.104;11.396;2023-04-12T12:23:06;99441.56;;;8.35;100.00
48563;BME280;34981;49.104;11.396;2023-04-12T12:25:33;99412.91;;;8.11;100.00
48563;BME280;34981;49.104;11.396;2023-04-12T12:28:00;99412.13;;;8.02;100.00
48563;BME280;34981;49.104;11.396;2023-04-12T12:30:36;99414.59;;;8.04;100.00
48563;BME280;34981;49.104;11.396;2023-04-12T12:33:05;99418.28;;;8.11;100.00
48563;BME280;34981;49.104;11.396;2023-04-12T12:35:33;99427.00;;;8.13;100.00
48563;BME280;34981;49.104;11.396;2023-04-12T12:38:00;99424.66;;;8.10;100.00
48563;BME280;34981;49.104;11.396;2023-04-12T12:40:32;99422.81;;;8.10;100.00
48563;BME280;34981;49.104;11.396;2023-04-12T12:42:59;99456.78;;;8.26;100.00
48563;BME280;34981;49.104;11.396;2023-04-12T12:45:27;99483.97;;;8.47;100.00
48563;BME280;34981;49.104;11.396;2023-04-12T12:50:26;99556.50;;;8.62;100.00
48563;BME280;34981;49.104;11.396;2023-04-12T12:52:54;99576.78;;;8.73;100.00
48563;BME280;34981;49.104;11.396;2023-04-12T12:55:22;99567.22;;;8.70;100.00
48563;BME280;34981;49.104;11.396;2023-04-12T12:57:51;99562.38;;;8.66;100.00
48563;BME280;34981;49.104;11.396;2023-04-12T13:00:33;99572.56;;;8.86;100.00
48563;BME280;34981;49.104;11.396;2023-04-12T13:03:01;99591.50;;;8.93;100.00
48563;BME280;34981;49.104;11.396;2023-04-12T13:05:29;99593.88;;;8.88;100.00
48563;BME280;34981;49.104;11.396;2023-04-12T13:07:56;99597.38;;;8.96;100.00
48563;BME280;34981;49.104;11.396;2023-04-12T13:10:24;99587.50;;;8.89;100.00
48563;BME280;34981;49.104;11.396;2023-04-12T13:12:52;99589.66;;;9.02;100.00
48563;BME280;34981;49.104;11.396;2023-04-12T13:15:19;99597.69;;;9.10;100.00
48563;BME280;34981;49.104;11.396;2023-04-12T13:17:50;99592.16;;;9.11;100.00
48563;BME280;34981;49.104;11.396;2023-04-12T13:20:17;99549.75;;;8.90;100.00
48563;BME280;34981;49.104;11.396;2023-04-12T13:22:45;99577.53;;;9.14;100.00
48563;BME280;34981;49.104;11.396;2023-04-12T13:25:12;99558.75;;;9.14;100.00
48563;BME280;34981;49.104;11.396;2023-04-12T13:27:39;99546.16;;;9.14;100.00
48563;BME280;34981;49.104;11.396;2023-04-12T13:30:06;99533.41;;;9.16;100.00